createdAt,value
2023-01-17T00:02:08.660Z,71.17
2023-01-17T00:04:50.760Z,71.28
2023-01-17T00:07:33.964Z,71.65
2023-01-17T00:10:07.227Z,71.39
2023-01-17T00:12:36.784Z,70.20
2023-01-17T00:15:10.403Z,70.90
2023-01-17T00:17:39.866Z,71.62
2023-01-17T00:20:23.298Z,70.48
2023-01-17T00:23:05.237Z,71.72
2023-01-17T00:25:48.208Z,72.08
2023-01-17T00:28:14.958Z,71.42
2023-01-17T00:30:46.808Z,72.16
2023-01-17T00:33:13.510Z,70.98
2023-01-17T00:35:40.514Z,71.47
2023-01-17T00:38:08.056Z,72.19
2023-01-17T00:40:35.493Z,71.44
2023-01-17T00:43:17.464Z,70.92
2023-01-17T00:46:02.155Z,70.92
2023-01-17T00:48:44.130Z,71.20
2023-01-17T00:51:26.080Z,71.49
2023-01-17T00:54:08.113Z,71.79
2023-01-17T00:56:50.110Z,70.67
2023-01-17T00:59:32.098Z,72.41
2023-01-17T01:02:16.692Z,72.30
2023-01-17T01:04:58.777Z,72.45
2023-01-17T01:07:40.738Z,71.60
2023-01-17T01:10:23.897Z,72.07
2023-01-17T01:13:05.912Z,71.64
2023-01-17T01:15:47.915Z,71.01
2023-01-17T01:18:32.489Z,71.83
2023-01-17T01:21:17.961Z,70.10
2023-01-17T01:23:59.969Z,70.11
2023-01-17T01:26:41.955Z,70.41
2023-01-17T01:29:23.921Z,69.37
2023-01-17T01:32:06.006Z,68.58
2023-01-17T01:34:38.168Z,69.86
2023-01-17T01:37:07.727Z,69.25
2023-01-17T01:39:37.205Z,68.40
2023-01-17T01:42:16.371Z,68.31
2023-01-17T01:44:47.752Z,68.92
2023-01-17T01:47:18.735Z,68.60
2023-01-17T01:49:51.299Z,69.17
2023-01-17T01:52:21.268Z,68.74
2023-01-17T01:54:52.274Z,68.61
2023-01-17T01:57:21.806Z,67.53
2023-01-17T01:59:53.914Z,67.45
2023-01-17T02:02:23.447Z,68.39
2023-01-17T03:43:34.570Z,66.42
2023-01-17T03:46:07.512Z,66.12
2023-01-17T03:48:37.185Z,65.99
2023-01-17T03:51:06.695Z,66.57
2023-01-17T03:53:36.214Z,66.07
2023-01-17T03:56:05.871Z,65.69
2023-01-17T03:58:37.983Z,66.27
2023-01-17T04:01:07.591Z,66.25
2023-01-17T04:03:37.200Z,65.63
2023-01-17T04:06:07.113Z,65.73
2023-01-17T04:08:36.665Z,65.23
2023-01-17T04:11:06.339Z,64.88
2023-01-17T04:13:38.479Z,64.92
2023-01-17T04:16:08.683Z,64.31
2023-01-17T04:18:38.193Z,64.54
2023-01-17T04:21:08.188Z,64.98
2023-01-17T04:23:37.779Z,66.02
2023-01-17T04:26:07.601Z,67.09
2023-01-17T04:28:39.702Z,67.82
2023-01-17T04:31:09.372Z,68.44
2023-01-17T04:33:38.921Z,69.52
2023-01-17T04:36:09.343Z,70.78
2023-01-17T04:38:38.879Z,70.29
2023-01-17T04:41:08.427Z,70.41
2023-01-17T04:43:40.627Z,69.56
2023-01-17T04:46:11.279Z,67.45
2023-01-17T04:48:40.865Z,66.67
2023-01-17T04:51:10.396Z,67.26
2023-01-17T04:53:40.040Z,67.45
2023-01-17T04:56:10.322Z,67.62
2023-01-17T04:58:42.492Z,67.21
2023-01-17T05:01:12.408Z,66.96
2023-01-17T05:03:42.092Z,66.53
2023-01-17T05:06:11.606Z,66.54
2023-01-17T05:08:41.136Z,66.08
2023-01-17T05:11:10.647Z,65.27
2023-01-17T05:13:42.778Z,64.54
2023-01-17T05:16:12.315Z,64.84
2023-01-17T05:18:41.832Z,65.47
2023-01-17T05:21:11.322Z,65.31
2023-01-17T05:23:42.697Z,65.10
2023-01-17T05:26:12.215Z,64.00
2023-01-17T05:28:44.349Z,63.88
2023-01-17T05:31:13.969Z,64.08
2023-01-17T05:33:43.501Z,64.88
2023-01-17T05:36:13.015Z,65.56
2023-01-17T05:38:42.529Z,65.82
2023-01-17T05:41:12.097Z,65.52
2023-01-17T05:43:44.517Z,66.03
2023-01-17T05:46:16.200Z,67.25
2023-01-17T05:48:45.832Z,67.58
2023-01-17T05:51:15.339Z,67.58
2023-01-17T05:53:44.915Z,67.90
2023-01-17T05:56:14.487Z,67.29
2023-01-17T05:58:46.601Z,67.46
2023-01-17T06:01:16.308Z,66.97
2023-01-17T06:03:45.828Z,66.34
2023-01-17T06:06:15.449Z,66.73
2023-01-17T06:08:44.995Z,67.51
2023-01-17T06:11:14.548Z,66.85
2023-01-17T06:13:46.671Z,67.21
2023-01-17T06:16:16.238Z,66.65
2023-01-17T06:18:45.760Z,67.76
2023-01-17T06:21:15.272Z,68.09
2023-01-17T06:23:44.785Z,68.42
2023-01-17T06:26:14.345Z,68.79
2023-01-17T06:28:47.091Z,68.13
2023-01-17T06:31:16.682Z,67.06
2023-01-17T06:33:46.216Z,65.78
2023-01-17T06:36:15.725Z,65.46
2023-01-17T06:38:45.253Z,66.15
2023-01-17T06:41:14.784Z,66.41
2023-01-17T06:43:47.243Z,66.67
2023-01-17T06:46:16.840Z,66.72
2023-01-17T06:48:48.357Z,67.53
2023-01-17T06:51:18.137Z,68.25
2023-01-17T06:53:47.640Z,67.68
2023-01-17T06:56:17.286Z,68.63
2023-01-17T06:58:51.613Z,68.76
2023-01-17T07:01:21.313Z,68.80
2023-01-17T07:03:52.538Z,69.69
2023-01-17T07:06:23.854Z,69.89
2023-01-17T07:08:53.404Z,69.41
2023-01-17T07:11:23.010Z,69.71
2023-01-17T07:13:55.119Z,69.11
2023-01-17T07:16:24.694Z,68.85
2023-01-17T07:18:54.898Z,68.90
2023-01-17T07:21:24.447Z,68.40
2023-01-17T07:23:53.940Z,68.86
2023-01-17T07:26:23.473Z,68.97
2023-01-17T07:28:55.595Z,68.67
2023-01-17T07:31:25.194Z,68.81
2023-01-17T07:33:54.821Z,68.49
2023-01-17T07:36:24.431Z,68.20
2023-01-17T07:38:53.944Z,68.27
2023-01-17T07:41:23.473Z,68.59
2023-01-17T07:43:56.484Z,68.17
2023-01-17T07:46:26.124Z,68.83
2023-01-17T07:48:55.803Z,68.51
2023-01-17T07:51:25.368Z,69.25
2023-01-17T07:53:55.077Z,68.93
2023-01-17T07:56:24.610Z,68.31
2023-01-17T07:58:56.718Z,67.97
2023-01-17T08:01:26.358Z,68.33
2023-01-17T08:03:55.931Z,68.97
2023-01-17T08:06:26.647Z,69.38
2023-01-17T08:08:58.991Z,69.92
2023-01-17T08:11:28.676Z,69.68
2023-01-17T08:14:00.818Z,69.70
2023-01-17T08:16:30.774Z,68.90
2023-01-17T08:19:00.299Z,69.18
2023-01-17T08:21:30.128Z,68.37
2023-01-17T08:23:59.620Z,68.02
2023-01-17T08:26:29.187Z,67.64
2023-01-17T08:29:02.539Z,67.03
2023-01-17T08:31:33.119Z,66.25
2023-01-17T08:34:02.663Z,64.96
2023-01-17T08:36:32.264Z,65.56
2023-01-17T08:39:01.883Z,65.07
2023-01-17T08:41:32.279Z,65.42
2023-01-17T08:44:04.669Z,64.02
2023-01-17T08:46:34.188Z,65.56
2023-01-17T08:49:03.715Z,66.29
2023-01-17T08:51:33.555Z,65.58
2023-01-17T08:54:03.071Z,63.60
2023-01-17T08:56:32.651Z,61.95
2023-01-17T08:59:05.541Z,60.54
2023-01-17T09:01:42.070Z,60.55
2023-01-17T09:04:12.420Z,59.69
2023-01-17T09:06:42.717Z,58.86
2023-01-17T09:09:13.803Z,58.32
2023-01-17T09:11:43.055Z,58.25
2023-01-17T09:14:17.041Z,59.36
2023-01-17T09:16:46.430Z,58.43
2023-01-17T09:19:15.750Z,60.89
2023-01-17T09:21:44.984Z,61.60
2023-01-17T09:24:14.351Z,61.09
2023-01-17T09:26:43.661Z,59.71
2023-01-17T09:29:14.071Z,58.03
2023-01-17T09:31:47.220Z,58.29
2023-01-17T09:34:18.652Z,57.21
2023-01-17T09:36:47.981Z,55.87
2023-01-17T09:39:17.372Z,55.55
2023-01-17T09:41:48.597Z,56.46
2023-01-17T09:44:20.987Z,59.22
2023-01-17T09:46:53.072Z,61.05
2023-01-17T09:49:25.012Z,61.42
2023-01-17T09:51:54.301Z,59.31
2023-01-17T09:54:24.349Z,60.45
2023-01-17T09:56:55.820Z,61.60
2023-01-17T09:59:33.235Z,62.13
2023-01-17T10:02:09.416Z,60.15
2023-01-17T10:04:45.697Z,58.07
2023-01-17T10:07:17.567Z,55.97
2023-01-17T10:10:01.779Z,54.66
2023-01-17T10:12:32.810Z,55.96
2023-01-17T10:15:10.611Z,57.13
2023-01-17T10:17:46.652Z,59.19
2023-01-17T10:20:20.930Z,58.01
2023-01-17T10:22:57.713Z,56.98
2023-01-17T10:25:51.346Z,57.32
2023-01-17T10:28:21.464Z,59.12
2023-01-17T10:30:54.016Z,57.50
2023-01-17T10:33:27.228Z,56.17
2023-01-17T10:35:57.541Z,55.40
2023-01-17T10:38:28.382Z,56.10
2023-01-17T10:40:57.995Z,56.36
2023-01-17T10:43:27.755Z,56.20
2023-01-17T10:45:57.353Z,56.41
2023-01-17T10:48:36.375Z,56.93
2023-01-17T10:51:08.025Z,57.74
2023-01-17T10:53:40.953Z,56.80
2023-01-17T10:56:10.320Z,54.86
2023-01-17T10:58:39.691Z,54.05
2023-01-17T11:01:10.342Z,53.83
2023-01-17T11:03:44.315Z,54.44
2023-01-17T11:06:20.586Z,52.77
2023-01-17T11:08:53.655Z,51.26
2023-01-17T11:11:23.081Z,50.02
2023-01-17T11:13:52.380Z,49.35
2023-01-17T11:16:22.810Z,50.72
2023-01-17T11:19:06.606Z,53.32
2023-01-17T11:21:35.904Z,54.11
2023-01-17T11:24:11.703Z,56.51
2023-01-17T11:26:41.353Z,55.75
2023-01-17T11:29:17.339Z,54.52
2023-01-17T11:31:46.657Z,54.67
2023-01-17T11:34:20.008Z,52.00
2023-01-17T11:36:49.361Z,50.86
2023-01-17T11:39:27.734Z,51.32
2023-01-17T11:41:57.158Z,49.45
2023-01-17T11:44:26.998Z,48.88
2023-01-17T11:47:12.333Z,47.56
2023-01-17T11:49:44.709Z,49.41
2023-01-17T11:52:14.363Z,49.36
2023-01-17T11:54:43.803Z,46.22
2023-01-17T11:57:19.492Z,47.43
2023-01-17T11:59:48.813Z,47.26
2023-01-17T12:02:32.236Z,48.57
2023-01-17T12:05:06.947Z,50.32
2023-01-17T12:07:36.775Z,50.42
2023-01-17T12:10:08.032Z,53.35
2023-01-17T12:12:53.206Z,51.48
2023-01-17T12:15:26.227Z,54.30
2023-01-17T12:18:16.452Z,55.74
2023-01-17T12:20:50.921Z,54.80
2023-01-17T12:23:29.619Z,53.90
2023-01-17T12:26:01.973Z,53.32
2023-01-17T12:28:39.030Z,51.26
2023-01-17T12:31:11.397Z,52.46
2023-01-17T12:33:41.769Z,52.67
2023-01-17T12:36:17.700Z,53.74
2023-01-17T12:38:47.309Z,54.59
2023-01-17T12:41:17.025Z,52.90
2023-01-17T12:43:46.651Z,53.94
2023-01-17T12:46:20.980Z,54.55
2023-01-17T12:48:50.488Z,53.99
2023-01-17T12:51:24.296Z,53.40
2023-01-17T12:53:56.615Z,52.27
2023-01-17T12:56:27.395Z,52.39
2023-01-17T12:58:57.497Z,52.35
2023-01-17T13:01:27.148Z,51.40
2023-01-17T13:04:00.315Z,49.87
2023-01-17T13:06:34.636Z,49.20
2023-01-17T13:09:03.959Z,50.68
2023-01-17T13:11:33.875Z,51.25
2023-01-17T13:14:03.243Z,53.68
2023-01-17T13:16:33.712Z,52.32
2023-01-17T13:19:04.590Z,52.03
2023-01-17T13:21:36.548Z,52.93
2023-01-17T13:24:12.261Z,54.01
2023-01-17T13:26:45.993Z,53.55
2023-01-17T13:29:17.551Z,55.10
2023-01-17T13:31:50.871Z,54.89
2023-01-17T13:34:24.681Z,53.76
2023-01-17T13:37:04.691Z,54.30
2023-01-17T13:39:51.623Z,54.05
2023-01-17T13:42:24.120Z,53.86
2023-01-17T13:44:53.463Z,54.67
2023-01-17T13:47:38.889Z,53.56
2023-01-17T13:50:08.407Z,54.27
2023-01-17T13:52:40.351Z,55.89
2023-01-17T13:55:09.849Z,56.19
2023-01-17T13:57:43.869Z,56.85
2023-01-17T14:00:28.363Z,54.81
2023-01-17T14:02:57.700Z,55.24
2023-01-17T14:05:32.797Z,55.63
2023-01-17T14:08:04.914Z,55.68
2023-01-17T14:10:35.938Z,56.20
2023-01-17T14:13:05.493Z,57.00
2023-01-17T14:15:35.124Z,56.48
2023-01-17T14:18:04.523Z,58.18
2023-01-17T14:20:45.209Z,58.01
2023-01-17T14:23:27.030Z,58.22
2023-01-17T14:25:56.380Z,56.91
2023-01-17T14:28:26.999Z,57.28
2023-01-17T14:30:56.995Z,56.58
2023-01-17T14:33:28.862Z,56.42
2023-01-17T14:35:59.187Z,55.74
2023-01-17T14:38:31.738Z,56.32
2023-01-17T14:41:01.574Z,56.14
2023-01-17T14:43:33.116Z,54.19
2023-01-17T14:46:03.569Z,55.56
2023-01-17T14:48:32.852Z,55.75
2023-01-17T14:51:02.401Z,55.16
2023-01-17T14:53:34.394Z,54.56
2023-01-17T14:56:03.949Z,54.96
2023-01-17T14:58:33.713Z,54.93
2023-01-17T15:01:03.717Z,56.67
2023-01-17T15:03:34.634Z,54.85
2023-01-17T15:06:06.097Z,55.93
2023-01-17T15:08:38.119Z,53.45
2023-01-17T15:11:08.035Z,55.71
2023-01-17T15:13:44.214Z,55.10
2023-01-17T15:16:20.164Z,56.61
2023-01-17T15:18:49.743Z,56.73
2023-01-17T15:21:19.605Z,54.85
2023-01-17T15:23:51.972Z,55.30
2023-01-17T15:26:22.519Z,57.36
2023-01-17T15:28:51.836Z,56.63
2023-01-17T15:31:22.199Z,56.66
2023-01-17T15:33:51.968Z,55.97
2023-01-17T15:36:30.185Z,55.12
2023-01-17T15:39:02.596Z,54.87
2023-01-17T15:41:33.235Z,54.16
2023-01-17T15:44:02.526Z,54.19
2023-01-17T15:46:33.020Z,54.37
2023-01-17T15:49:09.893Z,54.92
2023-01-17T15:51:41.663Z,56.12
2023-01-17T15:54:26.003Z,56.76
2023-01-17T15:57:18.597Z,56.21
2023-01-17T15:59:48.278Z,56.67
2023-01-17T16:02:28.086Z,56.85
2023-01-17T16:04:57.545Z,56.78
2023-01-17T16:07:30.546Z,56.22
2023-01-17T16:10:04.279Z,56.42
2023-01-17T16:12:36.235Z,56.28
2023-01-17T16:15:12.920Z,57.09
2023-01-17T16:17:43.170Z,57.72
2023-01-17T16:20:16.124Z,58.11
2023-01-17T16:22:45.965Z,57.70
2023-01-17T16:25:15.919Z,57.30
2023-01-17T16:27:48.213Z,57.59
2023-01-17T16:30:18.352Z,58.06
2023-01-17T16:32:48.589Z,58.80
2023-01-17T16:35:20.940Z,59.72
2023-01-17T16:37:51.535Z,60.30
2023-01-17T16:40:21.411Z,59.98
2023-01-17T16:42:53.323Z,60.23
2023-01-17T16:45:23.564Z,60.32
2023-01-17T16:47:53.391Z,59.86
2023-01-17T16:50:23.927Z,59.44
2023-01-17T16:52:53.266Z,59.13
2023-01-17T16:55:23.763Z,59.19
2023-01-17T16:57:55.817Z,58.75
2023-01-17T17:00:26.854Z,58.41
2023-01-17T17:02:56.311Z,58.54
2023-01-17T17:05:26.083Z,58.33
2023-01-17T17:07:56.206Z,58.72
2023-01-17T17:10:27.651Z,59.29
2023-01-17T17:13:02.800Z,59.22
2023-01-17T17:15:32.231Z,59.38
2023-01-17T17:18:01.756Z,58.86
2023-01-17T17:20:31.089Z,58.99
2023-01-17T17:23:00.371Z,58.61
2023-01-17T17:25:29.789Z,58.69
2023-01-17T17:28:05.169Z,58.16
2023-01-17T17:30:36.165Z,57.95
2023-01-17T17:33:06.469Z,57.92
2023-01-17T17:35:36.307Z,58.04
2023-01-17T17:38:06.761Z,57.67
2023-01-17T17:40:36.870Z,58.02
2023-01-17T17:43:08.813Z,58.01
2023-01-17T17:45:43.294Z,57.20
2023-01-17T17:48:12.643Z,57.89
2023-01-17T17:50:43.251Z,58.44
2023-01-17T17:53:12.629Z,58.35
2023-01-17T17:55:44.533Z,58.63
2023-01-17T17:58:26.816Z,58.29
2023-01-17T18:00:56.547Z,57.85
2023-01-17T18:03:26.255Z,57.11
2023-01-17T18:06:00.603Z,57.68
2023-01-17T18:08:41.012Z,57.86
2023-01-17T18:11:17.052Z,57.46
2023-01-17T18:13:51.858Z,57.47
2023-01-17T18:16:25.037Z,57.03
2023-01-17T18:19:00.500Z,57.64
2023-01-17T18:21:30.299Z,57.25
2023-01-17T18:24:06.594Z,57.46
2023-01-17T18:26:40.690Z,57.85
2023-01-17T18:29:14.849Z,57.77
2023-01-17T18:31:44.668Z,58.04
2023-01-17T18:34:14.746Z,57.60
2023-01-17T18:36:44.407Z,58.34
2023-01-17T18:39:13.937Z,58.53
2023-01-17T18:41:43.244Z,58.17
2023-01-17T18:44:15.203Z,58.19
2023-01-17T18:46:44.624Z,59.39
2023-01-17T18:49:15.489Z,61.31
2023-01-17T18:51:47.695Z,60.93
2023-01-17T18:54:17.408Z,61.26
2023-01-17T18:56:49.588Z,61.20
2023-01-17T18:59:23.592Z,60.17
2023-01-17T19:01:53.196Z,59.79
2023-01-17T19:04:22.643Z,60.18
2023-01-17T19:06:51.950Z,60.58
2023-01-17T19:09:22.419Z,60.24
2023-01-17T19:11:51.773Z,60.99
2023-01-17T19:14:23.833Z,61.91
2023-01-17T19:16:53.264Z,62.20
2023-01-17T19:19:25.478Z,62.14
2023-01-17T19:21:54.854Z,62.03
2023-01-17T19:24:24.158Z,62.61
2023-01-17T19:26:54.204Z,62.81
2023-01-17T19:29:27.194Z,62.09
2023-01-17T19:31:57.763Z,62.01
2023-01-17T19:34:29.514Z,61.26
2023-01-17T19:36:58.869Z,61.60
2023-01-17T19:39:30.587Z,62.78
2023-01-17T19:41:59.881Z,61.93
2023-01-17T19:44:32.997Z,61.32
2023-01-17T19:47:04.115Z,61.13
2023-01-17T19:49:35.992Z,60.76
2023-01-17T19:52:05.284Z,61.03
2023-01-17T19:54:34.586Z,62.83
2023-01-17T19:57:03.936Z,62.02
2023-01-17T19:59:35.874Z,62.45
2023-01-17T20:02:05.620Z,62.48
2023-01-17T20:04:39.944Z,61.89
2023-01-17T20:07:14.468Z,61.42
2023-01-17T20:09:43.905Z,60.49
2023-01-17T20:12:25.326Z,60.63
2023-01-17T20:15:00.779Z,61.23
2023-01-17T20:17:34.786Z,60.49
2023-01-17T20:20:12.917Z,61.18
2023-01-17T20:22:44.095Z,61.31
2023-01-17T20:25:16.498Z,60.89
2023-01-17T20:27:48.605Z,60.77
2023-01-17T20:30:24.677Z,60.59
2023-01-17T20:32:55.848Z,59.33
2023-01-17T20:35:25.344Z,59.77
2023-01-17T20:37:54.968Z,60.47
2023-01-17T20:40:24.669Z,60.25
2023-01-17T20:42:54.072Z,60.37
2023-01-17T20:45:26.210Z,60.56
2023-01-17T20:47:56.184Z,60.21
2023-01-17T20:50:25.781Z,60.18
2023-01-17T20:52:55.160Z,60.90
2023-01-17T20:55:24.673Z,60.73
2023-01-17T20:57:54.272Z,59.77
2023-01-17T21:00:26.751Z,57.99
2023-01-17T21:02:56.240Z,58.43
2023-01-17T21:05:25.617Z,58.97
2023-01-17T21:07:55.388Z,57.31
2023-01-17T21:10:25.053Z,56.62
2023-01-17T21:12:54.615Z,57.27
2023-01-17T21:15:27.110Z,56.74
2023-01-17T21:18:05.242Z,56.82
2023-01-17T21:20:36.481Z,56.68
2023-01-17T21:23:08.684Z,56.33
2023-01-17T21:25:38.060Z,56.45
2023-01-17T21:28:08.042Z,55.87
2023-01-17T21:30:40.181Z,55.98
2023-01-17T21:33:09.540Z,56.20
2023-01-17T21:35:38.806Z,55.82
2023-01-17T21:38:08.284Z,56.41
2023-01-17T21:40:42.664Z,55.90
2023-01-17T21:43:12.399Z,56.73
2023-01-17T21:45:44.689Z,56.31
2023-01-17T21:48:14.968Z,56.14
2023-01-17T21:50:52.631Z,56.62
2023-01-17T21:53:21.974Z,56.37
2023-01-17T21:56:06.572Z,55.18
2023-01-17T21:58:49.307Z,56.06
2023-01-17T22:01:22.673Z,56.22
2023-01-17T22:03:52.545Z,56.56
2023-01-17T22:06:22.156Z,56.72
2023-01-17T22:08:51.435Z,56.55
2023-01-17T22:11:21.201Z,56.64
2023-01-17T22:13:50.489Z,56.71
2023-01-17T22:16:26.100Z,56.80
2023-01-17T22:18:55.498Z,56.68
2023-01-17T22:21:25.504Z,56.70
2023-01-17T22:23:55.180Z,56.97
2023-01-17T22:26:24.988Z,57.02
2023-01-17T22:28:54.765Z,56.88
2023-01-17T22:31:30.092Z,57.69
2023-01-17T22:34:03.103Z,58.03
2023-01-17T22:36:32.517Z,58.30
2023-01-17T22:39:06.211Z,58.37
2023-01-17T22:41:35.739Z,58.41
2023-01-17T22:44:05.593Z,58.53
2023-01-17T22:46:39.324Z,59.11
2023-01-17T22:49:08.728Z,59.02
2023-01-17T22:51:38.956Z,59.14
2023-01-17T22:54:11.592Z,58.43
2023-01-17T22:56:40.905Z,58.83
2023-01-17T22:59:11.798Z,59.09
2023-01-17T23:01:43.717Z,58.88
2023-01-17T23:04:20.074Z,58.17
2023-01-17T23:06:59.743Z,58.86
2023-01-17T23:09:29.265Z,59.14
2023-01-17T23:11:58.757Z,58.65
2023-01-17T23:14:28.336Z,58.03
2023-01-17T23:17:13.064Z,58.45
2023-01-17T23:19:42.781Z,58.17
2023-01-17T23:22:15.881Z,58.23
2023-01-17T23:24:47.077Z,58.48
2023-01-17T23:27:29.370Z,58.29
2023-01-17T23:30:01.681Z,58.59
2023-01-17T23:32:33.616Z,57.05
2023-01-17T23:35:02.971Z,58.37
2023-01-17T23:37:44.555Z,57.79
2023-01-17T23:40:14.653Z,57.78
2023-01-17T23:42:56.678Z,56.98
2023-01-17T23:45:26.168Z,58.07
2023-01-17T23:47:58.124Z,56.67
2023-01-17T23:50:27.463Z,58.26
2023-01-17T23:52:57.212Z,57.76
2023-01-17T23:55:26.700Z,57.69
2023-01-17T23:57:56.109Z,58.12
